Time;durP1;ratioP1;P1;durP2;ratioP2;P2;SDS_P1;SDS_P2;PMS_P1;PMS_P2;Temp;Humidity;BMP_temperature;BMP_pressure;BME280_temperature;BME280_humidity;BME280_pressure;Samples;Min_cycle;Max_cycle;Signal;HPM_P1;HPM_P2
2022/04/10 00:01:30;;;;;;;12.07;2.28;;;4.50;99.90;;;;;;5037332;28;20033;-78
2022/04/10 00:03:56;;;;;;;16.23;2.50;;;4.50;99.90;;;;;;5076085;28;20028;-79
2022/04/10 00:06:23;;;;;;;8.68;2.42;;;4.50;99.90;;;;;;5058666;28;20043;-79
2022/04/10 00:08:49;;;;;;;12.65;2.25;;;4.40;99.90;;;;;;5056357;28;20530;-78
2022/04/10 00:11:15;;;;;;;10.63;2.25;;;4.30;99.90;;;;;;5073047;28;20035;-78
2022/04/10 00:13:41;;;;;;;9.50;2.28;;;4.30;99.90;;;;;;5058139;28;20036;-78
2022/04/10 00:16:08;;;;;;;12.98;2.22;;;4.20;99.90;;;;;;5068223;28;20028;-78
2022/04/10 00:18:37;;;;;;;11.27;2.42;;;4.10;99.90;;;;;;5057925;28;20032;-78
2022/04/10 00:21:04;;;;;;;10.02;2.33;;;4.10;99.90;;;;;;5060874;28;20450;-78
2022/04/10 00:23:30;;;;;;;12.85;2.63;;;4.10;99.90;;;;;;5056777;28;20040;-78
2022/04/10 00:25:56;;;;;;;10.15;2.30;;;4.00;99.90;;;;;;5061495;28;20036;-78
2022/04/10 00:28:21;;;;;;;6.18;1.85;;;4.10;99.90;;;;;;5060072;28;20223;-77
2022/04/10 00:30:47;;;;;;;9.50;2.17;;;4.10;99.90;;;;;;5075941;28;20104;-78
2022/04/10 00:33:13;;;;;;;15.80;2.20;;;4.10;99.90;;;;;;5055263;28;20033;-78
2022/04/10 00:35:38;;;;;;;10.73;2.47;;;4.30;99.90;;;;;;5078114;28;20097;-78
2022/04/10 00:38:04;;;;;;;8.27;1.85;;;4.20;99.90;;;;;;5077883;28;20048;-78
2022/04/10 00:40:30;;;;;;;11.30;2.88;;;4.20;99.90;;;;;;5065656;28;20025;-78
2022/04/10 00:42:56;;;;;;;10.77;2.50;;;4.20;99.90;;;;;;5076313;28;20021;-78
2022/04/10 00:45:22;;;;;;;7.57;1.58;;;4.30;99.90;;;;;;5044133;28;20115;-78
2022/04/10 00:47:48;;;;;;;11.15;2.30;;;4.10;99.90;;;;;;5056458;28;20021;-78
2022/04/10 00:50:15;;;;;;;8.93;1.85;;;4.10;99.90;;;;;;5039328;28;20103;-77
2022/04/10 00:52:42;;;;;;;12.55;2.65;;;4.10;99.90;;;;;;5060168;28;20028;-77
2022/04/10 00:55:08;;;;;;;9.02;2.30;;;4.10;99.90;;;;;;5066570;28;20021;-77
2022/04/10 00:57:34;;;;;;;13.68;2.47;;;4.10;99.90;;;;;;5032766;28;20017;-77
2022/04/10 01:00:00;;;;;;;10.15;2.83;;;4.10;99.90;;;;;;5052236;28;20028;-77
2022/04/10 01:02:26;;;;;;;9.05;1.95;;;4.10;99.90;;;;;;5078512;28;20020;-78
2022/04/10 01:04:52;;;;;;;11.27;2.50;;;4.20;99.90;;;;;;5054605;28;20090;-77
2022/04/10 01:07:20;;;;;;;8.05;1.83;;;4.30;99.90;;;;;;5062459;28;20032;-78
2022/04/10 01:09:46;;;;;;;13.02;2.10;;;4.40;99.90;;;;;;5042084;28;20080;-78
2022/04/10 01:12:12;;;;;;;8.88;2.05;;;4.30;99.90;;;;;;5028993;28;20024;-78
2022/04/10 01:14:39;;;;;;;8.35;1.75;;;4.20;99.90;;;;;;5071754;28;20059;-78
2022/04/10 01:17:09;;;;;;;9.90;1.73;;;4.20;99.90;;;;;;5062626;28;20032;-78
2022/04/10 01:19:38;;;;;;;8.05;1.90;;;4.20;99.90;;;;;;5054323;28;20036;-78
2022/04/10 01:22:05;;;;;;;7.82;2.22;;;4.10;99.90;;;;;;5046645;28;20028;-79
2022/04/10 01:24:40;;;;;;;14.15;2.67;;;4.10;99.90;;;;;;5057061;28;20033;-78
2022/04/10 01:27:06;;;;;;;10.23;2.00;;;4.00;99.90;;;;;;5058012;28;20099;-79
2022/04/10 01:29:33;;;;;;;13.10;2.00;;;4.00;99.90;;;;;;5051875;28;20033;-78
2022/04/10 01:31:59;;;;;;;7.45;1.88;;;3.90;99.90;;;;;;5069080;28;20017;-78
2022/04/10 01:34:25;;;;;;;4.40;1.52;;;4.00;99.90;;;;;;5072614;28;20021;-78
2022/04/10 01:36:51;;;;;;;6.80;2.05;;;3.90;99.90;;;;;;5038521;28;20032;-78
2022/04/10 01:39:17;;;;;;;10.05;2.25;;;4.00;99.90;;;;;;5062206;28;20101;-78
2022/04/10 01:41:45;;;;;;;9.43;2.20;;;4.00;99.90;;;;;;5045010;28;20033;-78
2022/04/10 01:44:11;;;;;;;9.43;2.00;;;4.00;99.90;;;;;;5061993;28;20028;-79
2022/04/10 01:46:37;;;;;;;13.77;1.95;;;3.90;99.90;;;;;;5070861;28;20046;-78
2022/04/10 01:49:05;;;;;;;7.28;2.38;;;3.90;99.90;;;;;;5051041;28;20515;-78
2022/04/10 01:51:31;;;;;;;7.45;1.67;;;3.90;99.90;;;;;;5055852;28;20021;-78
2022/04/10 01:53:57;;;;;;;10.38;1.73;;;3.90;99.90;;;;;;5058210;28;20067;-78
2022/04/10 01:56:23;;;;;;;7.25;1.70;;;4.10;99.90;;;;;;5056700;28;20036;-77
2022/04/10 01:58:52;;;;;;;7.38;1.35;;;4.00;99.90;;;;;;5071130;28;20029;-79
2022/04/10 02:01:18;;;;;;;8.18;1.88;;;4.00;99.90;;;;;;5056126;28;20089;-78
2022/04/10 02:03:47;;;;;;;6.75;1.90;;;3.90;99.90;;;;;;5071174;28;20542;-78
2022/04/10 02:06:15;;;;;;;5.90;1.67;;;3.90;99.90;;;;;;5073317;28;20097;-77
2022/04/10 02:08:42;;;;;;;6.05;1.88;;;3.90;99.90;;;;;;5039359;28;20031;-78
2022/04/10 02:11:13;;;;;;;5.53;1.83;;;4.00;99.90;;;;;;5073111;28;20021;-78
2022/04/10 02:13:39;;;;;;;;;;;4.10;99.90;;;;;;5075283;28;20028;-78
2022/04/10 02:16:08;;;;;;;9.93;2.65;;;4.00;99.90;;;;;;5058706;28;19919;-79
2022/04/10 02:18:34;;;;;;;6.95;2.67;;;4.00;99.90;;;;;;5058107;28;20036;-78
2022/04/10 02:21:00;;;;;;;12.73;3.15;;;4.00;99.90;;;;;;5042882;28;20036;-78
2022/04/10 02:23:26;;;;;;;11.25;2.60;;;3.90;99.90;;;;;;5057650;28;20029;-78
2022/04/10 02:25:51;;;;;;;8.45;3.08;;;3.90;99.90;;;;;;5092353;28;20119;-78
2022/04/10 02:28:17;;;;;;;14.82;4.05;;;3.70;99.90;;;;;;5058259;28;20021;-78
2022/04/10 02:30:42;;;;;;;6.72;2.40;;;3.70;99.90;;;;;;5069688;28;20538;-78
2022/04/10 02:33:08;;;;;;;6.35;2.50;;;3.70;99.90;;;;;;5056832;28;20043;-77
2022/04/10 02:35:34;;;;;;;9.00;3.47;;;3.60;99.90;;;;;;5042020;28;20034;-78
2022/04/10 02:37:59;;;;;;;10.15;2.97;;;3.50;99.90;;;;;;5057158;28;20029;-78
2022/04/10 02:40:25;;;;;;;11.13;2.47;;;3.20;99.90;;;;;;5058112;28;20032;-77
2022/04/10 02:42:51;;;;;;;6.20;2.50;;;3.20;99.90;;;;;;5070690;28;20036;-78
2022/04/10 02:45:16;;;;;;;6.53;2.45;;;3.20;99.90;;;;;;5070282;28;20089;-78
2022/04/10 02:47:42;;;;;;;6.68;2.10;;;3.10;99.90;;;;;;5084005;28;20039;-78
2022/04/10 02:50:08;;;;;;;8.48;2.33;;;3.10;99.90;;;;;;5043068;28;20016;-78
2022/04/10 02:52:34;;;;;;;7.05;2.38;;;3.00;99.90;;;;;;5054375;28;20024;-77
2022/04/10 02:54:59;;;;;;;5.20;2.30;;;2.90;99.90;;;;;;5070133;28;20066;-77
2022/04/10 02:57:28;;;;;;;5.72;2.20;;;2.80;99.90;;;;;;5037386;28;20029;-77
2022/04/10 02:59:54;;;;;;;7.95;2.15;;;2.90;99.90;;;;;;5076117;28;20074;-78
2022/04/10 03:02:19;;;;;;;6.90;2.58;;;2.80;99.90;;;;;;5068700;28;20033;-77
2022/04/10 03:04:45;;;;;;;4.53;2.50;;;2.80;99.90;;;;;;5056158;28;20481;-78
2022/04/10 03:07:11;;;;;;;6.70;2.17;;;2.90;99.90;;;;;;5057983;28;20047;-78
2022/04/10 03:09:36;;;;;;;4.65;2.22;;;3.00;99.90;;;;;;5040078;28;20070;-78
2022/04/10 03:12:04;;;;;;;9.32;2.60;;;3.00;99.90;;;;;;5068945;28;20029;-78
2022/04/10 03:14:30;;;;;;;8.45;2.97;;;2.90;99.90;;;;;;5092491;28;20035;-78
2022/04/10 03:16:57;;;;;;;7.38;3.20;;;2.90;99.90;;;;;;5074834;28;20044;-78
2022/04/10 03:19:23;;;;;;;7.53;3.20;;;2.90;99.90;;;;;;5041358;28;20037;-79
2022/04/10 03:21:48;;;;;;;12.43;3.65;;;3.00;99.90;;;;;;5068302;28;20104;-78
2022/04/10 03:24:14;;;;;;;10.27;3.10;;;3.00;99.90;;;;;;5063635;28;20031;-79
2022/04/10 03:26:39;;;;;;;8.88;2.90;;;3.10;99.90;;;;;;5088064;28;20033;-76
2022/04/10 03:29:05;;;;;;;12.40;3.10;;;3.10;99.90;;;;;;5054096;28;20084;-79
2022/04/10 03:31:31;;;;;;;9.25;3.05;;;3.10;99.90;;;;;;5073850;28;20035;-79
2022/04/10 03:33:57;;;;;;;14.23;2.70;;;3.10;99.90;;;;;;5088545;28;20492;-78
2022/04/10 03:36:22;;;;;;;7.40;2.33;;;3.10;99.90;;;;;;5087109;28;20044;-78
2022/04/10 03:38:48;;;;;;;8.20;2.00;;;3.20;99.90;;;;;;5037756;28;20032;-78
2022/04/10 03:41:13;;;;;;;6.30;2.05;;;3.20;99.90;;;;;;5075871;28;20040;-78
2022/04/10 03:43:39;;;;;;;6.78;1.90;;;3.10;99.90;;;;;;5057952;28;20108;-78
2022/04/10 03:46:05;;;;;;;7.18;2.08;;;3.10;99.90;;;;;;5058542;28;20032;-78
2022/04/10 03:48:31;;;;;;;12.35;2.67;;;3.10;99.90;;;;;;5075050;28;20020;-78
2022/04/10 03:50:56;;;;;;;8.45;2.55;;;3.00;99.90;;;;;;5050856;28;20025;-78
2022/04/10 03:53:24;;;;;;;9.60;2.45;;;3.10;99.90;;;;;;5067159;28;20044;-78
2022/04/10 03:55:49;;;;;;;7.38;2.50;;;3.00;99.90;;;;;;5050521;28;20025;-79
2022/04/10 03:58:15;;;;;;;6.35;2.63;;;3.00;99.90;;;;;;5059362;28;20040;-79
2022/04/10 04:00:41;;;;;;;6.85;2.60;;;3.00;99.90;;;;;;5069787;28;20036;-79
2022/04/10 04:03:07;;;;;;;9.95;3.03;;;3.00;99.90;;;;;;5046609;28;20025;-79
2022/04/10 04:05:33;;;;;;;9.82;2.53;;;2.90;99.90;;;;;;5059646;28;20089;-79
2022/04/10 04:07:58;;;;;;;5.70;2.28;;;2.90;99.90;;;;;;5072415;28;20033;-79
2022/04/10 04:10:24;;;;;;;5.80;2.47;;;2.80;99.90;;;;;;5075994;28;20062;-78
2022/04/10 04:12:52;;;;;;;6.93;2.60;;;2.80;99.90;;;;;;5053738;28;20033;-79
2022/04/10 04:15:18;;;;;;;8.95;2.40;;;2.80;99.90;;;;;;5056825;28;20515;-78
2022/04/10 04:17:43;;;;;;;12.07;3.05;;;2.80;99.90;;;;;;5056990;28;20035;-78
2022/04/10 04:20:09;;;;;;;14.85;3.42;;;2.80;99.90;;;;;;5088504;28;20037;-79
2022/04/10 04:22:36;;;;;;;9.75;2.65;;;2.80;99.90;;;;;;5074637;28;20020;-78
2022/04/10 04:25:03;;;;;;;13.02;3.28;;;2.90;99.90;;;;;;5070238;28;20028;-79
2022/04/10 04:27:29;;;;;;;13.88;2.63;;;3.00;99.90;;;;;;5055436;28;20024;-79
2022/04/10 04:29:55;;;;;;;9.18;2.30;;;2.90;99.90;;;;;;5083658;28;20029;-79
2022/04/10 04:32:20;;;;;;;13.77;2.40;;;3.00;99.90;;;;;;5056653;28;20088;-79
2022/04/10 04:34:47;;;;;;;9.60;3.30;;;3.00;99.90;;;;;;5067781;28;20025;-77
2022/04/10 04:37:13;;;;;;;11.20;3.08;;;3.00;99.90;;;;;;5029853;28;20033;-78
2022/04/10 04:39:39;;;;;;;11.00;3.22;;;3.00;99.90;;;;;;5039066;28;20058;-80
2022/04/10 04:42:06;;;;;;;12.82;2.63;;;3.10;99.90;;;;;;5056396;28;20120;-79
2022/04/10 04:44:31;;;;;;;7.18;2.28;;;3.10;99.90;;;;;;5068865;28;20378;-77
2022/04/10 04:46:58;;;;;;;16.25;3.17;;;3.10;99.90;;;;;;5064008;28;20024;-78
2022/04/10 04:49:27;;;;;;;9.00;3.05;;;3.10;99.90;;;;;;5062462;28;20052;-78
2022/04/10 04:51:53;;;;;;;15.82;3.35;;;3.20;99.90;;;;;;5055655;28;20381;-78
2022/04/10 04:54:19;;;;;;;10.63;2.83;;;3.20;99.90;;;;;;5061393;28;20028;-78
2022/04/10 04:56:45;;;;;;;6.63;2.38;;;3.20;99.90;;;;;;5078666;28;20087;-78
2022/04/10 04:59:14;;;;;;;14.73;3.83;;;3.30;99.90;;;;;;5061748;28;20027;-77
2022/04/10 05:01:41;;;;;;;10.95;2.95;;;3.30;99.90;;;;;;5048542;28;20500;-78
2022/04/10 05:04:10;;;;;;;10.50;2.70;;;3.30;99.90;;;;;;5075917;28;20481;-77
2022/04/10 05:06:38;;;;;;;15.68;3.60;;;3.30;99.90;;;;;;5076051;28;20028;-77
2022/04/10 05:09:05;;;;;;;17.55;3.33;;;3.30;99.90;;;;;;5082543;28;20036;-79
2022/04/10 05:11:31;;;;;;;10.75;3.08;;;3.30;99.90;;;;;;5077864;28;20039;-78
2022/04/10 05:13:57;;;;;;;14.38;3.03;;;3.30;99.90;;;;;;5072329;28;20029;-77
2022/04/10 05:16:22;;;;;;;14.65;3.63;;;3.40;99.90;;;;;;5059141;28;20458;-78
2022/04/10 05:18:49;;;;;;;15.98;3.20;;;3.40;99.90;;;;;;5090887;28;20024;-79
2022/04/10 05:21:15;;;;;;;13.68;3.60;;;3.50;99.90;;;;;;5060231;28;20036;-79
2022/04/10 05:23:41;;;;;;;11.55;2.90;;;3.50;99.90;;;;;;5060319;28;20528;-78
2022/04/10 05:26:07;;;;;;;10.07;2.88;;;3.50;99.90;;;;;;5042562;28;20029;-78
2022/04/10 05:28:34;;;;;;;9.77;3.17;;;3.40;99.90;;;;;;5075520;28;20048;-78
2022/04/10 05:31:04;;;;;;;14.65;3.40;;;3.50;99.90;;;;;;5030076;28;20064;-78
2022/04/10 05:33:34;;;;;;;12.43;3.13;;;3.50;99.90;;;;;;5048205;28;20025;-78
2022/04/10 05:36:00;;;;;;;13.15;2.90;;;3.50;99.90;;;;;;5058746;28;20035;-78
2022/04/10 05:38:26;;;;;;;13.95;2.88;;;3.50;99.90;;;;;;5056914;28;20044;-77
2022/04/10 05:40:54;;;;;;;14.30;2.80;;;3.50;99.90;;;;;;5070676;28;20048;-77
2022/04/10 05:43:22;;;;;;;16.33;3.33;;;3.50;99.90;;;;;;5056572;28;20036;-78
2022/04/10 05:45:48;;;;;;;15.20;4.07;;;3.50;99.90;;;;;;5057806;28;20028;-77
2022/04/10 05:48:14;;;;;;;11.32;2.75;;;3.50;99.90;;;;;;5040642;28;20055;-78
2022/04/10 05:50:40;;;;;;;14.68;3.42;;;3.60;99.90;;;;;;5056196;28;20021;-77
2022/04/10 05:53:06;;;;;;;13.02;3.58;;;3.60;99.90;;;;;;5050434;28;20893;-77
2022/04/10 05:55:31;;;;;;;12.70;3.47;;;3.60;99.90;;;;;;5055678;28;20448;-76
2022/04/10 05:57:57;;;;;;;16.95;3.25;;;3.60;99.90;;;;;;5085368;28;20048;-76
2022/04/10 06:00:26;;;;;;;11.10;2.83;;;3.60;99.90;;;;;;5063244;28;20020;-77
2022/04/10 06:02:52;;;;;;;11.85;2.65;;;3.60;99.90;;;;;;5030879;28;20032;-76
2022/04/10 06:05:19;;;;;;;12.50;2.55;;;3.70;99.90;;;;;;5048210;28;20500;-76
2022/04/10 06:07:45;;;;;;;13.98;3.28;;;3.70;99.90;;;;;;5051075;28;20040;-76
2022/04/10 06:10:12;;;;;;;13.52;2.97;;;3.70;99.90;;;;;;5059402;28;20017;-78
2022/04/10 06:12:38;;;;;;;11.82;3.28;;;3.70;99.90;;;;;;5068003;28;20064;-77
2022/04/10 06:15:04;;;;;;;13.00;2.90;;;3.60;99.90;;;;;;5042855;28;20660;-76
2022/04/10 06:17:30;;;;;;;9.70;2.60;;;3.60;99.90;;;;;;5050874;28;20028;-76
2022/04/10 06:19:57;;;;;;;10.68;3.03;;;3.70;99.90;;;;;;5051145;28;20031;-77
2022/04/10 06:22:25;;;;;;;10.73;2.47;;;3.80;99.90;;;;;;5053639;28;20927;-76
2022/04/10 06:24:52;;;;;;;11.15;3.17;;;4.00;99.90;;;;;;5072819;28;20037;-76
2022/04/10 06:27:20;;;;;;;11.93;2.50;;;4.10;99.90;;;;;;5068298;28;20611;-76
2022/04/10 06:29:47;;;;;;;9.40;2.17;;;4.10;99.90;;;;;;5049500;28;20041;-76
2022/04/10 06:32:13;;;;;;;12.75;2.20;;;4.20;99.90;;;;;;5051990;28;20067;-77
2022/04/10 06:34:40;;;;;;;9.05;2.25;;;4.20;99.90;;;;;;5045757;28;20025;-76
2022/04/10 06:37:07;;;;;;;7.25;2.45;;;4.20;99.90;;;;;;5070261;28;20039;-77
2022/04/10 06:39:34;;;;;;;10.23;2.75;;;4.20;99.90;;;;;;5050056;28;20064;-78
2022/04/10 06:42:00;;;;;;;11.27;2.95;;;4.10;99.90;;;;;;5052239;28;20033;-77
2022/04/10 06:44:25;;;;;;;8.85;2.08;;;4.40;99.90;;;;;;5051826;28;20029;-77
2022/04/10 06:46:52;;;;;;;6.05;2.10;;;4.50;99.90;;;;;;5050886;28;20077;-77
2022/04/10 06:49:19;;;;;;;8.02;2.42;;;4.50;99.90;;;;;;5047677;28;20021;-77
2022/04/10 06:51:45;;;;;;;7.13;2.45;;;4.50;99.90;;;;;;5049019;28;20545;-76
2022/04/10 06:54:10;;;;;;;8.20;2.35;;;4.40;99.90;;;;;;5065845;28;20093;-76
2022/04/10 06:56:36;;;;;;;8.73;3.47;;;4.40;99.90;;;;;;5062255;28;20041;-77
2022/04/10 06:59:02;;;;;;;8.55;2.85;;;4.50;99.90;;;;;;5065054;28;20361;-78
2022/04/10 07:01:28;;;;;;;6.90;3.00;;;4.50;99.90;;;;;;5031862;28;20094;-75
2022/04/10 07:03:53;;;;;;;13.45;3.40;;;4.50;99.90;;;;;;5068328;28;20656;-77
2022/04/10 07:06:19;;;;;;;7.68;3.05;;;4.50;99.90;;;;;;5053763;28;20056;-77
2022/04/10 07:08:45;;;;;;;10.32;3.45;;;4.40;99.90;;;;;;5038655;28;20021;-77
2022/04/10 07:11:12;;;;;;;11.93;3.10;;;4.40;99.90;;;;;;5048925;28;20441;-77
2022/04/10 07:13:37;;;;;;;16.63;3.40;;;4.20;99.90;;;;;;5039378;28;20032;-78
2022/04/10 07:16:03;;;;;;;12.02;3.38;;;4.20;99.90;;;;;;5048697;28;20051;-79
2022/04/10 07:18:29;;;;;;;14.23;3.13;;;4.30;99.90;;;;;;5070072;28;20051;-77
2022/04/10 07:20:54;;;;;;;17.17;3.47;;;4.30;99.90;;;;;;5054489;28;20059;-76
2022/04/10 07:26:07;;;;;;;10.50;3.28;;;4.50;99.90;;;;;;5062263;28;20024;-76
2022/04/10 07:28:32;;;;;;;15.40;2.97;;;4.40;99.90;;;;;;5065591;28;20033;-76
2022/04/10 07:30:59;;;;;;;11.05;3.00;;;4.50;99.90;;;;;;5087000;28;20020;-79
2022/04/10 07:33:24;;;;;;;16.73;3.28;;;4.60;99.90;;;;;;5062645;28;20485;-78
2022/04/10 07:35:50;;;;;;;13.95;3.15;;;4.70;99.90;;;;;;5051381;28;20059;-75
2022/04/10 07:38:17;;;;;;;17.05;4.28;;;4.80;99.90;;;;;;5042959;28;20025;-75
2022/04/10 07:40:43;;;;;;;12.27;3.13;;;4.80;99.90;;;;;;5075971;28;20040;-76
2022/04/10 07:43:09;;;;;;;12.98;3.10;;;4.90;99.90;;;;;;5055067;28;20036;-77
2022/04/10 07:48:20;;;;;;;12.50;3.13;;;4.90;99.90;;;;;;5065387;28;20024;-76
2022/04/10 07:50:46;;;;;;;12.88;2.97;;;5.10;99.90;;;;;;5075842;28;20611;-75
2022/04/10 07:53:11;;;;;;;9.40;2.33;;;5.20;99.90;;;;;;5063297;28;20466;-76
2022/04/10 07:55:37;;;;;;;11.80;2.20;;;5.20;99.90;;;;;;5064903;28;20044;-76
2022/04/10 07:58:03;;;;;;;17.35;3.42;;;5.30;99.90;;;;;;5056238;28;20054;-75
2022/04/10 08:00:32;;;;;;;11.90;3.13;;;5.40;99.90;;;;;;5075824;28;20044;-75
2022/04/10 08:03:02;;;;;;;16.33;3.40;;;5.60;99.90;;;;;;5048572;28;20126;-76
2022/04/10 08:05:28;;;;;;;15.23;2.90;;;5.80;99.90;;;;;;5065466;28;20029;-75
2022/04/10 08:07:54;;;;;;;12.95;3.65;;;6.00;99.90;;;;;;5060381;28;20035;-76
2022/04/10 08:10:20;;;;;;;17.65;3.30;;;6.20;99.90;;;;;;5053599;28;20480;-78
2022/04/10 08:12:46;;;;;;;14.98;3.40;;;6.10;99.90;;;;;;5053154;28;20072;-77
2022/04/10 08:15:12;;;;;;;14.43;3.42;;;6.00;99.90;;;;;;5066056;28;20037;-78
2022/04/10 08:17:38;;;;;;;13.10;3.40;;;6.00;99.90;;;;;;5074176;28;20056;-77
2022/04/10 08:20:06;;;;;;;14.18;2.47;;;5.80;99.90;;;;;;5052555;28;20024;-77
2022/04/10 08:22:32;;;;;;;10.00;2.78;;;5.50;99.90;;;;;;5031683;28;20112;-77
2022/04/10 08:25:06;;;;;;;6.75;2.70;;;5.20;99.90;;;;;;5039439;28;20026;-78
2022/04/10 08:27:33;;;;;;;9.07;2.50;;;5.00;99.90;;;;;;5047108;28;20028;-77
2022/04/10 08:29:59;;;;;;;9.85;2.38;;;5.00;99.90;;;;;;5039899;28;20033;-77
2022/04/10 08:32:24;;;;;;;7.30;2.30;;;5.00;99.90;;;;;;5022915;28;20516;-77
2022/04/10 08:34:50;;;;;;;9.80;2.70;;;5.00;99.90;;;;;;5069190;28;20500;-77
2022/04/10 08:37:16;;;;;;;8.30;2.78;;;5.00;99.90;;;;;;5088884;28;20020;-79
2022/04/10 08:39:42;;;;;;;6.47;2.17;;;5.00;99.90;;;;;;5059138;28;20039;-79
2022/04/10 08:42:08;;;;;;;7.53;2.10;;;5.00;99.90;;;;;;5048506;28;20021;-78
2022/04/10 08:44:34;;;;;;;10.10;2.10;;;5.00;99.90;;;;;;5067816;28;20029;-77
2022/04/10 08:47:01;;;;;;;10.82;2.78;;;5.10;99.90;;;;;;5059936;28;20362;-79
2022/04/10 08:49:31;;;;;;;13.52;2.22;;;5.10;99.90;;;;;;5057495;28;20040;-77
2022/04/10 08:51:58;;;;;;;9.38;2.38;;;5.30;99.90;;;;;;5089297;28;20064;-80
2022/04/10 08:54:26;;;;;;;16.40;3.60;;;5.20;99.90;;;;;;5065688;28;20180;-78
2022/04/10 08:56:52;;;;;;;7.60;1.67;;;5.30;99.90;;;;;;5069413;28;20024;-77
2022/04/10 08:59:19;;;;;;;12.52;1.83;;;5.40;99.90;;;;;;5079637;28;20035;-75
2022/04/10 09:01:45;;;;;;;10.25;1.70;;;5.40;99.90;;;;;;5091503;28;20203;-79
2022/04/10 09:04:12;;;;;;;12.20;2.88;;;5.40;99.90;;;;;;5030290;28;20033;-78
2022/04/10 09:06:55;;;;;;;6.72;1.75;;;5.40;99.90;;;;;;5059152;28;20029;-77
2022/04/10 09:09:20;;;;;;;8.38;1.73;;;5.50;99.90;;;;;;5063810;28;20021;-78
2022/04/10 09:11:46;;;;;;;9.52;1.67;;;5.50;99.90;;;;;;5047892;28;20462;-77
2022/04/10 09:14:20;;;;;;;9.85;1.70;;;5.60;99.90;;;;;;5061145;28;20036;-80
2022/04/10 09:16:46;;;;;;;13.40;2.30;;;5.60;99.90;;;;;;5066125;28;20051;-79
2022/04/10 09:19:12;;;;;;;9.25;1.80;;;5.70;99.90;;;;;;5054858;28;20040;-79
2022/04/10 09:21:39;;;;;;;13.02;2.00;;;5.70;99.90;;;;;;5080632;28;20268;-79
2022/04/10 09:24:06;;;;;;;11.13;2.40;;;5.80;99.90;;;;;;5069698;28;20028;-78
2022/04/10 09:26:51;;;;;;;15.02;1.95;;;6.00;99.90;;;;;;5069096;28;20048;-78
2022/04/10 09:29:24;;;;;;;14.15;2.58;;;6.10;99.90;;;;;;5053776;28;20025;-79
2022/04/10 09:31:51;;;;;;;10.07;1.90;;;6.20;99.90;;;;;;5042533;28;20028;-77
2022/04/10 09:34:25;;;;;;;8.32;2.17;;;6.40;99.90;;;;;;5055827;28;20035;-77
2022/04/10 09:37:03;;;;;;;16.25;2.38;;;6.40;99.90;;;;;;5056777;28;20056;-77
2022/04/10 09:39:33;;;;;;;8.23;2.13;;;6.50;99.90;;;;;;5040904;28;20078;-77
2022/04/10 09:42:02;;;;;;;6.13;1.50;;;6.50;99.90;;;;;;5063514;28;20036;-78
2022/04/10 09:44:32;;;;;;;7.13;2.20;;;6.70;99.90;;;;;;5064512;28;20103;-77
2022/04/10 09:47:05;;;;;;;10.30;2.03;;;6.80;99.90;;;;;;5090887;28;20032;-79
2022/04/10 09:49:35;;;;;;;14.68;2.60;;;7.00;99.90;;;;;;5086188;28;20441;-76
2022/04/10 09:52:01;;;;;;;11.77;1.88;;;6.90;99.90;;;;;;5052737;28;20098;-77
2022/04/10 09:54:33;;;;;;;11.38;1.88;;;6.90;99.90;;;;;;5085022;28;20032;-73
2022/04/10 09:57:03;;;;;;;12.80;2.55;;;6.90;99.90;;;;;;5065560;28;20412;-80
2022/04/10 09:59:36;;;;;;;7.93;1.48;;;6.80;99.90;;;;;;5030809;28;20057;-79
2022/04/10 10:02:05;;;;;;;17.67;2.45;;;6.80;99.90;;;;;;5070475;28;20103;-79
2022/04/10 10:04:33;;;;;;;8.13;1.48;;;6.70;99.90;;;;;;5084863;28;20056;-77
2022/04/10 10:07:00;;;;;;;7.28;1.55;;;6.70;99.90;;;;;;5068874;28;20028;-81
2022/04/10 10:09:27;;;;;;;9.55;1.75;;;6.70;99.90;;;;;;5071496;28;20068;-79
2022/04/10 10:11:53;;;;;;;7.10;1.80;;;6.70;99.90;;;;;;5078464;28;20025;-76
2022/04/10 10:14:19;;;;;;;11.43;1.90;;;6.80;99.90;;;;;;5066817;28;20499;-79
2022/04/10 10:16:45;;;;;;;8.70;2.45;;;6.90;99.90;;;;;;5082371;28;20036;-79
2022/04/10 10:19:11;;;;;;;8.20;1.52;;;7.00;99.90;;;;;;5079311;28;20028;-78
2022/04/10 10:21:37;;;;;;;8.05;1.50;;;7.00;99.90;;;;;;5080327;28;20146;-79
2022/04/10 10:24:05;;;;;;;7.78;1.70;;;7.10;99.90;;;;;;5038991;28;20056;-78
2022/04/10 10:26:53;;;;;;;9.25;1.70;;;7.10;99.90;;;;;;5064113;28;20139;-79
2022/04/10 10:29:53;;;;;;;7.88;1.70;;;7.50;99.90;;;;;;5069625;28;20605;-79
2022/04/10 10:32:43;;;;;;;7.05;1.35;;;7.70;99.90;;;;;;5078221;28;20076;-80
2022/04/10 10:35:11;;;;;;;16.35;2.05;;;7.80;99.90;;;;;;5069385;28;20495;-78
2022/04/10 10:38:25;;;;;;;10.80;2.25;;;7.80;99.90;;;;;;5070216;28;20058;-79
2022/04/10 10:40:53;;;;;;;12.35;1.75;;;7.80;99.90;;;;;;5041021;28;20045;-78
2022/04/10 10:43:22;;;;;;;13.07;1.63;;;7.90;99.90;;;;;;5054635;28;20396;-78
2022/04/10 10:45:50;;;;;;;12.65;1.98;;;7.80;99.90;;;;;;5074021;28;20136;-79
2022/04/10 10:48:23;;;;;;;10.82;1.58;;;7.90;99.90;;;;;;5053600;28;20027;-77
2022/04/10 10:50:54;;;;;;;10.35;2.63;;;8.10;99.90;;;;;;5081124;28;20024;-76
2022/04/10 10:54:08;;;;;;;7.90;1.60;;;8.30;99.90;;;;;;5071178;28;20032;-75
2022/04/10 10:56:41;;;;;;;6.18;1.27;;;8.30;99.90;;;;;;5064348;28;20033;-76
2022/04/10 10:59:29;;;;;;;7.45;1.70;;;8.60;99.90;;;;;;5099556;28;20025;-76
2022/04/10 11:02:18;;;;;;;13.73;1.60;;;8.70;99.90;;;;;;5083973;28;20028;-77
2022/04/10 11:04:46;;;;;;;9.63;1.50;;;8.70;99.90;;;;;;5083245;28;20115;-79
2022/04/10 11:07:24;;;;;;;8.10;1.45;;;8.80;99.90;;;;;;5076519;28;20020;-79
2022/04/10 11:10:00;;;;;;;4.05;1.48;;;9.60;99.90;;;;;;5097372;28;20029;-79
2022/04/10 11:12:46;;;;;;;9.02;2.00;;;11.10;99.70;;;;;;5083875;28;20092;-79
2022/04/10 11:15:19;;;;;;;11.32;2.05;;;13.00;89.10;;;;;;5054830;28;20073;-79
2022/04/10 11:17:45;;;;;;;9.93;1.80;;;13.00;91.30;;;;;;5089538;28;20036;-80
2022/04/10 11:20:14;;;;;;;9.95;2.15;;;12.10;91.30;;;;;;5062854;28;20052;-78
2022/04/10 11:22:51;;;;;;;5.53;1.60;;;11.30;92.70;;;;;;5071358;28;20043;-79
2022/04/10 11:25:18;;;;;;;9.07;1.77;;;10.50;95.10;;;;;;5081426;28;20033;-79
2022/04/10 11:27:50;;;;;;;13.43;2.67;;;9.50;99.90;;;;;;5067670;28;20032;-79
2022/04/10 11:30:19;;;;;;;;;;;8.60;99.90;;;;;;5085152;28;20021;-78
2022/04/10 11:32:50;;;;;;;8.95;2.03;;;7.80;99.90;;;;;;5075039;28;19897;-77
2022/04/10 11:35:23;;;;;;;11.10;1.55;;;7.30;99.90;;;;;;5088191;28;20029;-78
2022/04/10 11:37:51;;;;;;;90.70;34.40;;;7.00;99.90;;;;;;5067676;28;20025;-77
2022/04/10 11:40:19;;;;;;;285.63;128.38;;;6.80;99.90;;;;;;5055495;28;20092;-77
2022/04/10 11:42:45;;;;;;;170.00;75.30;;;6.80;99.90;;;;;;5076722;28;20032;-77
2022/04/10 11:45:11;;;;;;;146.85;73.90;;;6.60;99.90;;;;;;5089076;28;20024;-77
2022/04/10 11:47:39;;;;;;;12.63;4.45;;;7.00;99.90;;;;;;5067931;28;20025;-80
2022/04/10 11:50:07;;;;;;;13.00;1.95;;;7.70;99.90;;;;;;5060767;28;20428;-78
2022/04/10 11:52:33;;;;;;;9.55;1.85;;;8.50;99.90;;;;;;5063717;28;20021;-80
2022/04/10 11:54:59;;;;;;;8.40;1.83;;;9.50;99.90;;;;;;5066782;28;20032;-79
2022/04/10 11:57:25;;;;;;;9.88;2.30;;;10.20;99.90;;;;;;5075145;28;20028;-78
2022/04/10 11:59:51;;;;;;;6.82;1.58;;;10.70;99.90;;;;;;5052133;28;20053;-76
2022/04/10 12:02:18;;;;;;;9.82;2.00;;;11.40;99.90;;;;;;5062724;28;20040;-79
2022/04/10 12:04:49;;;;;;;6.35;1.52;;;11.60;99.90;;;;;;5071768;28;20044;-81
2022/04/10 12:07:19;;;;;;;9.15;1.88;;;11.80;99.90;;;;;;5064074;28;20030;-79
2022/04/10 12:09:47;;;;;;;12.70;1.87;;;11.20;99.20;;;;;;5067453;28;20025;-79
2022/04/10 12:12:15;;;;;;;10.55;1.77;;;11.30;99.90;;;;;;5066936;28;20029;-81
2022/04/10 12:14:40;;;;;;;7.47;1.85;;;11.70;98.80;;;;;;5053864;28;20029;-80
2022/04/10 12:17:10;;;;;;;8.32;2.03;;;12.00;96.40;;;;;;5071072;28;20029;-80
2022/04/10 12:19:36;;;;;;;8.03;2.03;;;11.80;92.70;;;;;;5064227;28;20028;-81
2022/04/10 12:22:07;;;;;;;5.05;1.67;;;11.50;90.30;;;;;;5068084;28;20082;-80
2022/04/10 12:24:34;;;;;;;6.47;1.95;;;12.20;91.00;;;;;;5052823;28;20037;-80
2022/04/10 12:27:03;;;;;;;5.60;1.35;;;12.70;95.20;;;;;;5091055;28;20055;-81
2022/04/10 12:29:30;;;;;;;9.80;1.75;;;13.40;93.20;;;;;;5040309;28;20032;-79
2022/04/10 12:31:57;;;;;;;9.25;1.38;;;13.80;92.00;;;;;;5051857;28;20060;-80
2022/04/10 12:34:23;;;;;;;7.22;1.40;;;14.30;82.70;;;;;;5072839;28;20898;-79
2022/04/10 12:36:53;;;;;;;8.13;2.08;;;13.90;83.60;;;;;;5075060;28;20059;-80
2022/04/10 12:39:27;;;;;;;9.68;2.08;;;13.20;81.90;;;;;;5060970;28;20032;-79
2022/04/10 12:42:08;;;;;;;8.57;1.67;;;12.10;90.40;;;;;;5069922;28;20036;-78
2022/04/10 12:44:37;;;;;;;10.80;2.05;;;11.20;95.80;;;;;;5076538;28;20033;-78
2022/04/10 12:47:09;;;;;;;7.65;1.92;;;10.60;96.80;;;;;;5051401;28;20029;-78
2022/04/10 12:49:39;;;;;;;11.40;2.90;;;10.10;99.90;;;;;;5078652;28;20028;-79
2022/04/10 12:52:08;;;;;;;16.65;5.30;;;9.90;99.90;;;;;;5060780;28;20028;-79
2022/04/10 12:54:42;;;;;;;7.88;1.80;;;11.40;99.90;;;;;;5090949;28;20041;-79
2022/04/10 12:57:13;;;;;;;7.05;1.98;;;12.80;99.90;;;;;;5076486;28;20036;-79
2022/04/10 12:59:44;;;;;;;4.53;1.48;;;14.20;94.50;;;;;;5075297;28;20029;-78